Time;durP1;ratioP1;P1;durP2;ratioP2;P2;SDS_P1;SDS_P2;PMS_P1;PMS_P2;Temp;Humidity;BMP_temperature;BMP_pressure;BME280_temperature;BME280_humidity;BME280_pressure;Samples;Min_cycle;Max_cycle;Signal;HPM_P1;HPM_P2
2023/03/02 00:02:07;;;;;;;34.78;19.00;;;5.40;58.50;;;0.30;86.57;95332.97;4964046;28;20084;-54
2023/03/02 00:04:46;;;;;;;36.30;20.38;;;5.50;58.60;;;0.26;86.59;95322.09;4972794;28;20101;-55
2023/03/02 00:07:31;;;;;;;40.50;21.17;;;5.50;58.50;;;0.28;87.05;95317.44;4955858;28;20112;-53
2023/03/02 00:09:57;;;;;;;39.88;22.05;;;5.50;58.60;;;0.31;86.46;95324.09;4973089;28;20084;-52
2023/03/02 00:12:29;;;;;;;36.33;19.52;;;5.50;58.50;;;0.28;86.65;95325.31;4954576;28;20030;-52
2023/03/02 00:14:55;;;;;;;36.15;20.73;;;5.50;58.60;;;0.28;86.76;95329.75;4965959;28;20038;-51
2023/03/02 00:17:27;;;;;;;37.33;21.52;;;5.50;58.50;;;0.19;87.17;95322.13;4971556;28;20022;-52
2023/03/02 00:20:10;;;;;;;38.78;21.63;;;5.50;58.50;;;0.22;87.54;95326.97;4972116;28;20034;-56
2023/03/02 00:22:44;;;;;;;38.50;20.95;;;5.50;58.50;;;0.28;87.16;95324.50;4972479;28;20394;-54
2023/03/02 00:25:14;;;;;;;41.13;21.73;;;5.50;58.60;;;0.28;87.04;95322.69;4955744;28;20393;-54
2023/03/02 00:27:40;;;;;;;36.15;19.58;;;5.50;58.60;;;0.19;87.38;95323.94;4971399;28;20389;-53
2023/03/02 00:30:14;;;;;;;37.40;22.00;;;5.50;58.50;;;0.07;87.52;95318.53;4986452;28;20033;-53
2023/03/02 00:32:44;;;;;;;42.22;23.98;;;5.50;58.50;;;0.01;87.96;95308.88;4972055;28;20041;-51
2023/03/02 00:35:10;;;;;;;37.17;20.95;;;5.50;58.50;;;0.04;87.61;95312.91;4955125;28;20018;-51
2023/03/02 00:37:39;;;;;;;36.35;21.70;;;5.50;58.50;;;0.09;87.51;95323.56;4969107;28;20424;-52
2023/03/02 00:40:09;;;;;;;39.80;20.67;;;5.40;58.50;;;0.10;87.38;95322.56;4970874;28;20030;-53
2023/03/02 00:42:38;;;;;;;31.92;17.88;;;5.40;58.60;;;0.09;86.77;95313.06;4965914;28;20590;-52
2023/03/02 00:45:10;;;;;;;39.95;20.85;;;5.40;58.60;;;0.11;87.20;95321.53;4954441;28;20084;-52
2023/03/02 00:47:37;;;;;;;38.38;20.92;;;5.40;58.60;;;0.15;87.40;95317.50;4970899;28;20492;-54
2023/03/02 00:50:09;;;;;;;39.00;20.88;;;5.40;58.70;;;0.21;87.48;95311.44;4954279;28;20030;-51
2023/03/02 00:52:36;;;;;;;;;;;5.30;58.70;;;0.18;87.35;95304.00;4972461;28;20038;-52
2023/03/02 00:55:02;;;;;;;38.90;21.45;;;5.40;58.70;;;0.18;87.05;95304.78;4970617;28;20273;-54
2023/03/02 00:57:27;;;;;;;39.25;20.92;;;5.30;58.70;;;0.23;87.17;95296.31;4972284;28;20479;-53
2023/03/02 00:59:59;;;;;;;38.22;21.10;;;5.40;58.70;;;0.27;87.08;95294.09;4953444;28;20030;-53
2023/03/02 01:02:27;;;;;;;35.55;19.85;;;5.40;58.70;;;0.29;86.83;95294.69;4966864;28;20362;-51
2023/03/02 01:04:56;;;;;;;38.42;21.60;;;5.40;58.70;;;0.33;86.52;95283.59;4954149;28;20113;-54
2023/03/02 01:07:27;;;;;;;36.97;20.50;;;5.50;58.80;;;0.35;86.55;95286.00;4969361;28;20088;-52
2023/03/02 01:09:56;;;;;;;36.85;20.95;;;5.50;58.80;;;0.34;87.35;95292.25;4954635;28;20030;-53
2023/03/02 01:12:25;;;;;;;36.13;19.88;;;5.50;58.70;;;0.32;87.62;95292.47;4970247;28;20188;-51
2023/03/02 01:14:53;;;;;;;37.78;21.13;;;5.50;58.70;;;0.34;87.72;95284.38;4971054;28;20029;-51
2023/03/02 01:17:28;;;;;;;35.13;20.00;;;5.60;58.70;;;0.31;87.48;95282.19;4971572;28;20058;-50
2023/03/02 01:19:57;;;;;;;34.55;19.98;;;5.60;58.70;;;0.33;87.61;95277.53;4970307;28;20030;-50
2023/03/02 01:22:25;;;;;;;38.55;21.23;;;5.60;58.70;;;0.33;87.76;95270.47;4971623;28;20401;-52
2023/03/02 01:24:52;;;;;;;37.47;20.73;;;5.60;58.70;;;0.30;87.52;95281.38;4969851;28;20472;-52
2023/03/02 01:27:21;;;;;;;42.08;21.08;;;5.60;58.60;;;0.31;87.27;95272.50;4919485;28;20069;-51
2023/03/02 01:29:56;;;;;;;40.28;22.00;;;5.60;58.70;;;0.33;86.96;95274.91;4950112;28;20044;-52
2023/03/02 01:32:28;;;;;;;41.20;20.77;;;5.60;58.70;;;0.30;86.92;95273.50;4971052;28;20030;-51
2023/03/02 01:34:54;;;;;;;43.45;21.30;;;5.60;58.60;;;0.33;86.92;95273.09;4922103;28;20109;-50
2023/03/02 01:37:26;;;;;;;35.78;19.90;;;5.60;58.60;;;0.32;87.18;95266.25;4970200;28;20057;-52
2023/03/02 01:39:52;;;;;;;35.47;19.90;;;5.60;58.60;;;0.33;87.30;95262.63;4970186;28;20022;-51
2023/03/02 01:42:21;;;;;;;37.17;20.58;;;5.60;58.60;;;0.34;87.29;95266.03;4970231;28;20037;-54
2023/03/02 01:44:55;;;;;;;41.65;22.73;;;5.60;58.60;;;0.36;87.28;95261.41;4955226;28;20030;-53
2023/03/02 01:47:36;;;;;;;40.08;21.17;;;5.60;58.60;;;0.37;87.67;95263.81;4957056;28;20571;-53
2023/03/02 01:50:23;;;;;;;36.17;21.33;;;5.60;58.70;;;0.38;87.47;95259.41;4972773;28;20030;-54
2023/03/02 01:52:54;;;;;;;41.67;23.30;;;5.60;58.70;;;0.38;87.60;95251.53;4940748;28;20477;-53
2023/03/02 01:55:31;;;;;;;42.72;22.55;;;5.60;58.80;;;0.37;87.83;95260.38;4954527;28;20117;-55
2023/03/02 01:58:02;;;;;;;35.47;20.08;;;5.60;58.80;;;0.35;87.49;95252.75;4956024;28;20036;-56
2023/03/02 02:00:37;;;;;;;40.92;21.83;;;5.60;58.80;;;0.29;87.65;95248.34;4954872;28;20030;-56
2023/03/02 02:03:26;;;;;;;37.08;20.92;;;5.60;58.80;;;0.32;87.67;95253.16;4955868;28;20034;-55
2023/03/02 02:06:41;;;;;;;44.05;23.38;;;5.60;58.80;;;0.34;87.37;95238.00;4958786;28;20030;-52
2023/03/02 02:09:15;;;;;;;43.00;21.83;;;5.60;58.90;;;0.32;87.27;95234.03;4971935;28;20029;-53
2023/03/02 02:11:45;;;;;;;38.28;21.27;;;5.50;58.80;;;0.33;87.67;95239.03;4954477;28;20021;-57
2023/03/02 02:14:19;;;;;;;42.00;22.38;;;5.50;58.80;;;0.30;87.48;95236.84;4928718;28;20129;-55
2023/03/02 02:16:50;;;;;;;40.97;21.75;;;5.50;58.90;;;0.24;87.69;95235.03;4955926;28;20061;-53
2023/03/02 02:20:06;;;;;;;43.15;21.58;;;5.50;58.80;;;0.19;87.89;95232.25;4935493;28;20553;-57
2023/03/02 02:23:26;;;;;;;38.35;20.73;;;5.50;58.80;;;0.22;87.60;95237.88;4966698;28;20107;-57
2023/03/02 02:26:23;;;;;;;38.67;20.42;;;5.50;58.90;;;0.24;87.97;95235.03;4975830;28;20030;-55
2023/03/02 02:29:21;;;;;;;36.78;21.15;;;5.40;58.90;;;0.21;87.60;95245.94;4976450;28;20450;-55
2023/03/02 02:32:33;;;;;;;44.85;21.38;;;5.40;59.00;;;0.19;87.79;95248.78;4959326;28;20057;-54
2023/03/02 02:35:17;;;;;;;44.20;22.85;;;5.40;59.00;;;-0.02;88.44;95228.91;4939894;28;20058;-57
2023/03/02 02:38:01;;;;;;;45.40;23.20;;;5.40;59.00;;;-0.20;88.66;95215.66;4955051;28;20053;-55
2023/03/02 02:40:54;;;;;;;44.53;23.83;;;5.30;58.90;;;-0.20;89.79;95207.00;4959791;28;20481;-54
2023/03/02 02:43:22;;;;;;;45.72;23.83;;;5.30;59.00;;;-0.14;89.71;95208.81;4958757;28;20492;-55
2023/03/02 02:45:57;;;;;;;43.67;24.17;;;5.20;59.00;;;-0.04;89.16;95223.06;4959186;28;20428;-56
2023/03/02 02:48:31;;;;;;;41.53;22.55;;;5.20;59.10;;;-0.01;88.94;95227.09;4945534;28;20033;-57
2023/03/02 02:50:59;;;;;;;46.05;24.00;;;5.20;59.10;;;-0.09;89.43;95220.28;4943450;28;20022;-51
2023/03/02 02:54:00;;;;;;;47.38;24.65;;;5.10;59.10;;;-0.19;89.70;95214.66;4973988;28;20061;-58
2023/03/02 02:56:40;;;;;;;45.30;24.02;;;5.10;59.10;;;-0.18;89.64;95216.28;4961166;28;20042;-54
2023/03/02 02:59:40;;;;;;;49.85;25.23;;;5.10;59.20;;;-0.18;89.27;95208.41;4959983;28;20038;-57
2023/03/02 03:02:42;;;;;;;41.05;22.73;;;5.10;59.30;;;-0.15;89.51;95208.00;4959420;28;20022;-54
2023/03/02 03:05:15;;;;;;;43.45;24.23;;;5.10;59.30;;;-0.12;89.21;95204.19;4959703;28;20388;-54
2023/03/02 03:07:52;;;;;;;44.38;23.45;;;5.00;59.30;;;-0.09;89.22;95204.56;4975395;28;20621;-52
2023/03/02 03:10:39;;;;;;;39.65;22.50;;;5.00;59.90;;;-0.06;88.99;95211.22;4968934;28;20034;-52
2023/03/02 03:13:11;;;;;;;42.17;23.42;;;5.00;59.40;;;-0.08;89.39;95214.03;4965543;28;20400;-53
2023/03/02 03:15:37;;;;;;;42.83;22.67;;;5.00;59.40;;;-0.09;89.15;95216.84;4958168;28;20105;-52
2023/03/02 03:18:03;;;;;;;38.15;20.42;;;5.00;59.40;;;-0.10;89.37;95221.25;4973025;28;20041;-53
2023/03/02 03:20:32;;;;;;;45.13;24.25;;;5.00;59.40;;;-0.15;89.41;95222.91;4975655;28;20493;-54
2023/03/02 03:22:59;;;;;;;43.00;22.95;;;5.00;59.50;;;-0.16;89.68;95213.44;4982101;23;20065;-51
2023/03/02 03:25:33;;;;;;;46.00;22.95;;;5.00;59.40;;;-0.17;89.88;95214.47;4953750;28;20473;-48
2023/03/02 03:27:59;;;;;;;43.42;23.13;;;5.00;59.50;;;-0.16;90.09;95216.06;4955169;28;20022;-48
2023/03/02 03:30:28;;;;;;;43.63;23.65;;;5.00;59.50;;;-0.26;90.26;95216.50;4964701;28;20494;-48
2023/03/02 03:33:09;;;;;;;44.75;23.35;;;5.00;59.50;;;-0.19;89.99;95214.66;4957696;28;20030;-48
2023/03/02 03:35:41;;;;;;;43.78;23.98;;;4.90;59.50;;;-0.20;90.54;95223.53;4956011;28;20018;-48
2023/03/02 03:38:10;;;;;;;43.90;23.55;;;5.00;59.50;;;-0.17;90.18;95219.69;4967182;28;20109;-51
2023/03/02 03:40:38;;;;;;;43.28;22.38;;;5.00;59.60;;;-0.21;90.88;95221.91;4973915;28;20096;-48
2023/03/02 03:43:04;;;;;;;46.72;24.23;;;4.90;59.50;;;-0.22;90.84;95229.97;4962502;28;20035;-48
2023/03/02 03:45:31;;;;;;;46.45;23.33;;;4.90;59.50;;;-0.17;90.45;95227.53;4968150;28;20030;-48
2023/03/02 03:47:57;;;;;;;45.00;24.02;;;4.90;59.60;;;-0.14;90.23;95222.69;4931915;28;20117;-48
2023/03/02 03:50:23;;;;;;;45.25;23.50;;;4.90;59.60;;;-0.10;90.02;95223.88;4934781;28;20014;-50
2023/03/02 03:52:51;;;;;;;43.67;22.90;;;4.90;59.60;;;-0.20;90.75;95223.53;4966921;28;20542;-51
2023/03/02 03:55:18;;;;;;;40.45;22.60;;;4.90;59.60;;;-0.19;90.76;95232.19;4943314;28;20019;-48
2023/03/02 03:57:44;;;;;;;43.50;22.92;;;4.90;59.60;;;-0.20;90.59;95230.56;4957399;28;20030;-49
2023/03/02 04:00:15;;;;;;;44.47;22.27;;;4.90;59.70;;;-0.20;90.81;95231.38;4956990;28;20022;-49
2023/03/02 04:02:44;;;;;;;46.15;24.58;;;4.90;59.70;;;-0.21;90.87;95223.75;4909877;28;20046;-48
2023/03/02 04:05:11;;;;;;;42.25;23.25;;;4.90;59.70;;;-0.22;90.89;95225.53;4951568;28;20188;-48
2023/03/02 04:07:40;;;;;;;52.60;25.10;;;4.90;59.70;;;-0.25;91.36;95229.38;4941004;28;20037;-50
2023/03/02 04:10:09;;;;;;;49.25;25.08;;;4.90;59.70;;;-0.21;91.41;95229.78;4955145;28;20022;-51
2023/03/02 04:12:40;;;;;;;45.38;23.50;;;4.90;59.80;;;-0.21;91.47;95229.78;4947013;28;20033;-48
2023/03/02 04:15:15;;;;;;;47.42;24.40;;;4.90;59.80;;;-0.20;91.84;95231.38;4956311;28;20038;-50
2023/03/02 04:18:00;;;;;;;51.00;25.55;;;4.90;59.80;;;-0.16;91.41;95229.94;4976685;28;20024;-55
2023/03/02 04:20:34;;;;;;;43.80;23.42;;;4.90;59.90;;;-0.19;91.30;95229.56;4949751;28;20030;-52
2023/03/02 04:23:03;;;;;;;49.53;24.33;;;4.90;59.90;;;-0.20;91.71;95234.00;4939796;28;20042;-49
2023/03/02 04:25:32;;;;;;;51.78;25.40;;;4.90;59.90;;;-0.21;91.76;95232.38;4966606;28;20054;-53
2023/03/02 04:27:58;;;;;;;46.28;25.17;;;4.90;59.90;;;-0.18;91.91;95233.81;4966644;28;20049;-51
2023/03/02 04:30:26;;;;;;;48.35;25.35;;;4.90;60.00;;;-0.19;91.86;95246.06;4958846;28;20031;-48
2023/03/02 04:32:53;;;;;;;50.65;25.80;;;4.90;60.00;;;-0.23;91.84;95239.63;4953719;28;20121;-53
2023/03/02 04:35:21;;;;;;;50.95;25.27;;;4.90;60.10;;;-0.17;92.14;95238.81;4938464;28;20022;-48
2023/03/02 04:37:47;;;;;;;50.55;26.63;;;4.90;60.00;;;-0.22;92.27;95240.44;4932132;28;20030;-50
2023/03/02 04:40:16;;;;;;;46.83;25.20;;;4.90;60.00;;;-0.16;92.05;95247.47;4963447;28;20026;-50
2023/03/02 04:42:43;;;;;;;44.50;25.23;;;4.90;60.10;;;-0.19;92.04;95253.13;4970600;28;20034;-48
2023/03/02 04:45:13;;;;;;;46.53;25.77;;;4.90;60.10;;;-0.15;92.05;95255.13;4954429;28;20029;-51
2023/03/02 04:47:39;;;;;;;45.92;24.23;;;4.90;60.20;;;-0.11;92.23;95258.94;4961194;28;20022;-48
2023/03/02 04:50:07;;;;;;;48.00;25.50;;;4.90;60.10;;;-0.20;92.20;95252.31;4951154;28;20025;-48
2023/03/02 04:52:33;;;;;;;49.28;25.30;;;5.00;60.30;;;-0.19;92.52;95250.50;4947328;28;20033;-48
2023/03/02 04:54:59;;;;;;;46.33;22.27;;;5.00;60.30;;;-0.13;92.32;95252.28;4971761;28;20034;-52
2023/03/02 04:57:27;;;;;;;48.67;25.25;;;5.00;60.30;;;-0.19;92.82;95250.50;4948007;28;20425;-48
2023/03/02 04:59:53;;;;;;;49.35;26.52;;;5.00;60.30;;;-0.14;92.79;95243.66;4952314;28;20244;-54
2023/03/02 05:02:27;;;;;;;51.15;25.83;;;5.00;60.30;;;-0.11;92.66;95237.19;4951169;28;20022;-53
2023/03/02 05:04:53;;;;;;;46.95;24.85;;;5.00;60.30;;;-0.11;92.77;95243.22;4934050;28;20461;-49
2023/03/02 05:07:19;;;;;;;48.67;24.13;;;5.00;60.30;;;-0.12;93.08;95246.06;4941206;28;20041;-51
2023/03/02 05:09:51;;;;;;;49.25;25.23;;;5.00;60.40;;;-0.08;93.00;95240.19;4932181;28;20037;-49
2023/03/02 05:12:22;;;;;;;45.97;24.15;;;5.00;60.40;;;-0.06;92.84;95245.25;4970328;28;20580;-54
2023/03/02 05:14:48;;;;;;;48.83;24.05;;;5.00;60.50;;;-0.04;92.90;95243.22;4957207;28;20026;-51
2023/03/02 05:17:17;;;;;;;47.72;25.10;;;5.00;60.40;;;0.01;92.71;95242.59;4963411;28;20018;-55
2023/03/02 05:19:45;;;;;;;42.15;21.88;;;5.00;60.40;;;-0.01;93.17;95242.78;4968533;28;20029;-52
2023/03/02 05:22:11;;;;;;;58.03;27.25;;;5.10;60.40;;;0.02;93.39;95252.88;4969169;28;20121;-53
2023/03/02 05:24:37;;;;;;;48.25;25.98;;;5.10;60.50;;;0.05;93.45;95257.69;4965417;28;20113;-53
2023/03/02 05:27:03;;;;;;;45.00;24.20;;;5.10;60.50;;;0.08;93.43;95259.09;4957570;28;20025;-50
2023/03/02 05:29:29;;;;;;;50.60;26.42;;;5.20;60.60;;;0.08;93.27;95262.50;4954357;28;20034;-51
2023/03/02 05:31:55;;;;;;;46.13;24.80;;;5.20;60.60;;;0.08;93.31;95264.34;4958864;28;20499;-54
2023/03/02 05:34:21;;;;;;;48.92;25.05;;;5.20;60.60;;;0.12;92.92;95263.69;4934542;28;20757;-49
2023/03/02 05:36:47;;;;;;;48.88;25.45;;;5.20;60.60;;;0.12;93.21;95276.78;4951124;28;20026;-51
2023/03/02 05:39:15;;;;;;;45.22;24.02;;;5.20;60.50;;;0.07;93.26;95275.81;4948212;28;20038;-52
2023/03/02 05:41:44;;;;;;;50.30;26.70;;;5.30;60.60;;;0.08;93.03;95285.28;4967534;28;20041;-56
2023/03/02 05:44:13;;;;;;;46.88;24.20;;;5.30;60.60;;;0.09;93.52;95271.97;4960347;28;20473;-52
2023/03/02 05:46:40;;;;;;;45.22;24.55;;;5.30;60.60;;;0.14;93.09;95281.84;4965363;28;20034;-53
2023/03/02 05:49:06;;;;;;;45.00;23.98;;;5.30;60.60;;;0.19;93.03;95282.03;4945580;29;20069;-52
2023/03/02 05:51:34;;;;;;;49.70;25.45;;;5.30;60.60;;;0.18;92.87;95281.22;4950726;29;20027;-52
2023/03/02 05:54:03;;;;;;;54.38;28.27;;;5.30;60.60;;;0.19;92.95;95292.50;4950451;28;20062;-50
2023/03/02 05:56:29;;;;;;;48.40;24.90;;;5.40;60.60;;;0.20;92.86;95291.50;4955651;28;20508;-52
2023/03/02 05:59:01;;;;;;;47.45;24.40;;;5.40;60.60;;;0.21;93.22;95288.66;4954090;28;20062;-52
2023/03/02 06:01:30;;;;;;;49.93;26.90;;;5.40;60.60;;;0.25;93.11;95293.47;4957037;28;20082;-51
2023/03/02 06:03:58;;;;;;;42.58;23.77;;;5.40;60.60;;;0.26;92.74;95289.88;4940659;28;20313;-51
2023/03/02 06:06:24;;;;;;;46.53;24.27;;;5.40;60.50;;;0.24;93.33;95300.53;4958811;28;20032;-54
2023/03/02 06:08:53;;;;;;;43.92;23.10;;;5.40;60.50;;;0.29;93.12;95305.97;4958212;28;20026;-52
2023/03/02 06:11:19;;;;;;;49.72;25.98;;;5.50;60.60;;;0.32;93.21;95307.38;4947405;28;20042;-54
2023/03/02 06:14:01;;;;;;;46.92;25.17;;;5.50;60.60;;;0.32;93.10;95302.94;4955367;28;20062;-54
2023/03/02 06:16:27;;;;;;;55.43;26.73;;;5.50;60.60;;;0.34;93.48;95303.53;4945907;28;20105;-51
2023/03/02 06:18:52;;;;;;;46.85;24.88;;;5.60;60.60;;;0.34;93.46;95313.19;4955303;28;20102;-51
2023/03/02 06:21:18;;;;;;;48.13;25.90;;;5.60;60.60;;;0.39;93.10;95327.31;4956218;28;20030;-54
2023/03/02 06:23:44;;;;;;;52.15;25.95;;;5.60;60.50;;;0.41;93.09;95317.44;4918511;28;20627;-52
2023/03/02 06:26:12;;;;;;;45.15;24.98;;;5.70;60.60;;;0.42;92.77;95326.88;4953096;28;20019;-57
2023/03/02 06:28:38;;;;;;;53.00;27.33;;;5.70;60.50;;;0.45;92.56;95325.69;4946655;28;20109;-53
2023/03/02 06:31:05;;;;;;;48.90;25.67;;;5.70;60.40;;;0.49;92.24;95329.47;4957812;28;20601;-53
2023/03/02 06:33:30;;;;;;;51.70;27.13;;;5.70;60.40;;;0.50;92.11;95328.47;4929279;28;20038;-55
2023/03/02 06:36:03;;;;;;;52.80;26.15;;;5.70;60.40;;;0.52;91.90;95326.44;4935074;28;20462;-53
2023/03/02 06:38:29;;;;;;;51.88;27.67;;;5.80;60.40;;;0.54;91.97;95331.50;4934454;29;20107;-55
2023/03/02 06:40:59;;;;;;;48.25;26.17;;;5.90;60.40;;;0.55;91.89;95335.72;4939919;28;20117;-55
2023/03/02 06:43:27;;;;;;;54.53;25.35;;;5.90;60.30;;;0.58;91.72;95335.31;4944320;28;20023;-51
2023/03/02 06:45:53;;;;;;;49.90;25.92;;;5.90;60.30;;;0.61;91.59;95338.31;4941295;28;20042;-51
2023/03/02 06:48:21;;;;;;;48.65;26.38;;;5.90;60.20;;;0.63;91.71;95343.34;4942611;28;20621;-49
2023/03/02 06:50:50;;;;;;;51.50;26.20;;;6.00;60.20;;;0.64;91.23;95351.00;4937740;28;20105;-51
2023/03/02 06:53:17;;;;;;;51.45;26.48;;;6.00;60.10;;;0.64;91.34;95347.59;4936831;28;20031;-51
2023/03/02 06:55:43;;;;;;;47.53;25.90;;;6.00;60.90;;;0.68;91.50;95351.38;4919405;29;20385;-51
2023/03/02 06:58:12;;;;;;;51.95;25.33;;;6.10;60.10;;;0.71;91.15;95356.22;4934357;28;20041;-49
2023/03/02 07:00:39;;;;;;;52.65;27.48;;;6.10;60.00;;;0.71;91.36;95363.28;4945458;28;20034;-48
2023/03/02 07:03:04;;;;;;;50.90;26.73;;;6.10;60.00;;;0.76;91.38;95366.91;4948362;28;20063;-51
2023/03/02 07:05:39;;;;;;;46.33;25.17;;;6.20;60.00;;;0.79;91.16;95370.91;4949527;28;20104;-54
2023/03/02 07:08:05;;;;;;;47.03;26.45;;;6.20;60.00;;;0.79;90.33;95368.31;4950970;28;20108;-48
2023/03/02 07:10:32;;;;;;;44.10;25.50;;;6.20;59.90;;;0.82;91.14;95373.94;4939522;28;20023;-50
2023/03/02 07:13:00;;;;;;;50.08;27.40;;;6.30;59.90;;;0.89;90.73;95373.91;4941986;28;20125;-51
2023/03/02 07:15:26;;;;;;;50.67;25.98;;;6.30;59.80;;;0.88;90.31;95372.28;4939012;28;20565;-51
2023/03/02 07:17:51;;;;;;;48.88;26.17;;;6.40;59.80;;;0.93;89.99;95382.94;4933447;28;20153;-52
2023/03/02 07:20:18;;;;;;;47.20;25.77;;;6.40;59.80;;;0.97;89.63;95380.72;4949661;28;20093;-49
2023/03/02 07:22:44;;;;;;;50.65;26.77;;;6.40;60.40;;;1.00;90.25;95385.53;4953957;28;20527;-52
2023/03/02 07:25:13;;;;;;;47.50;25.52;;;6.50;59.70;;;0.98;89.48;95380.50;4930324;29;20077;-53
2023/03/02 07:27:40;;;;;;;45.38;24.50;;;6.50;59.60;;;1.06;89.29;95376.84;4956682;28;20026;-50
2023/03/02 07:30:07;;;;;;;49.20;25.58;;;6.60;59.60;;;1.10;89.35;95385.91;4930276;28;20045;-50
2023/03/02 07:32:34;;;;;;;51.45;28.30;;;6.60;59.60;;;1.17;89.43;95385.88;4931949;28;20031;-48
2023/03/02 07:34:59;;;;;;;51.40;27.77;;;6.70;59.60;;;1.21;88.75;95389.69;4945480;28;20030;-50
2023/03/02 07:37:32;;;;;;;50.85;26.35;;;6.70;59.50;;;1.24;88.90;95392.69;4923601;29;20445;-48
2023/03/02 07:39:58;;;;;;;47.53;25.50;;;6.80;59.40;;;1.31;88.63;95398.69;4948210;28;20030;-48
2023/03/02 07:42:24;;;;;;;49.42;25.50;;;6.80;59.40;;;1.32;88.21;95396.91;4942896;28;20030;-53
2023/03/02 07:44:53;;;;;;;44.17;24.10;;;6.90;59.30;;;1.37;88.28;95403.09;4934238;28;20031;-48
2023/03/02 07:47:25;;;;;;;51.22;26.38;;;7.00;59.30;;;1.41;87.95;95410.53;4942902;28;20034;-51
2023/03/02 07:49:50;;;;;;;45.60;25.07;;;7.00;59.20;;;1.45;87.82;95409.13;4930768;28;20043;-50
2023/03/02 07:52:30;;;;;;;49.83;26.25;;;7.10;59.20;;;1.48;87.67;95404.25;4951734;28;20478;-48
2023/03/02 07:55:00;;;;;;;46.75;25.90;;;7.10;59.10;;;1.52;87.92;95404.63;4950483;28;20484;-48
2023/03/02 07:57:26;;;;;;;46.35;26.73;;;7.10;59.00;;;1.61;87.92;95404.16;4952899;28;20038;-48
2023/03/02 07:59:52;;;;;;;53.65;27.05;;;7.20;59.00;;;1.70;87.61;95417.84;4932715;28;20562;-51
2023/03/02 08:02:21;;;;;;;49.22;25.45;;;7.30;59.00;;;1.73;86.89;95419.25;4951134;28;20465;-50
2023/03/02 08:04:47;;;;;;;50.63;25.75;;;7.30;58.90;;;1.77;87.08;95418.59;4932742;28;20047;-54
2023/03/02 08:07:15;;;;;;;47.40;24.92;;;7.40;58.90;;;1.79;86.87;95413.16;4932467;28;20041;-55
2023/03/02 08:09:41;;;;;;;47.67;26.10;;;7.40;58.80;;;1.80;86.16;95422.63;4932994;29;20030;-51
2023/03/02 08:12:12;;;;;;;51.38;26.52;;;7.40;58.70;;;1.84;86.60;95411.47;4933745;28;20030;-49
2023/03/02 08:14:38;;;;;;;47.85;24.45;;;7.50;58.70;;;1.90;86.50;95417.69;4952161;28;20038;-53
2023/03/02 08:17:07;;;;;;;48.15;25.10;;;7.60;58.70;;;1.91;86.39;95411.41;4938534;28;20019;-53
2023/03/02 08:19:33;;;;;;;47.08;24.88;;;7.60;58.60;;;1.96;86.02;95418.66;4943025;28;20034;-51
2023/03/02 08:22:01;;;;;;;52.42;26.27;;;7.60;58.50;;;2.00;85.63;95419.84;4957413;28;20034;-53
2023/03/02 08:24:33;;;;;;;50.42;25.27;;;7.70;58.50;;;2.03;85.85;95424.66;4950312;28;20026;-52
2023/03/02 08:27:03;;;;;;;53.03;26.38;;;7.70;58.40;;;2.10;85.16;95425.44;4969302;28;20169;-53
2023/03/02 08:29:30;;;;;;;49.67;24.08;;;7.70;58.40;;;2.05;84.50;95428.69;4966508;28;20029;-55
2023/03/02 08:31:59;;;;;;;49.78;26.00;;;7.70;58.30;;;2.08;84.63;95425.63;4932488;28;20050;-48
2023/03/02 08:34:26;;;;;;;53.63;27.42;;;7.70;58.20;;;2.18;84.69;95432.22;4944968;28;20481;-50
2023/03/02 08:36:55;;;;;;;51.33;24.65;;;7.80;58.20;;;2.22;84.00;95425.50;4966893;28;20030;-51
2023/03/02 08:39:24;;;;;;;45.85;25.15;;;7.90;58.20;;;2.25;84.65;95428.50;4951950;28;20509;-54
2023/03/02 08:41:52;;;;;;;48.40;25.55;;;7.90;58.20;;;2.23;84.55;95430.56;4933090;28;20405;-50
2023/03/02 08:44:20;;;;;;;46.47;24.02;;;8.00;58.20;;;2.25;84.38;95428.50;4961761;28;20030;-55
2023/03/02 08:46:48;;;;;;;47.85;25.85;;;8.00;58.10;;;2.35;84.18;95429.84;4953498;28;20731;-54
2023/03/02 08:49:16;;;;;;;45.58;24.08;;;8.10;58.00;;;2.39;83.59;95437.09;4958390;28;20035;-51
2023/03/02 08:51:52;;;;;;;47.83;26.15;;;8.10;57.90;;;2.38;84.10;95426.78;4950687;28;20049;-48
2023/03/02 08:54:22;;;;;;;43.22;23.83;;;8.20;57.90;;;2.26;81.61;95422.25;4940420;28;20287;-49
2023/03/02 08:56:56;;;;;;;44.70;24.17;;;8.20;57.80;;;2.31;81.91;95430.28;4950988;28;20105;-52
2023/03/02 08:59:28;;;;;;;43.78;23.80;;;8.20;57.70;;;2.34;80.51;95431.66;4951190;28;20026;-50
2023/03/02 09:01:53;;;;;;;46.13;23.73;;;8.20;57.60;;;2.42;80.10;95430.59;4948299;28;20053;-50
2023/03/02 09:04:33;;;;;;;49.00;24.83;;;8.30;57.50;;;2.48;80.79;95432.38;4969226;28;20057;-55
2023/03/02 09:06:59;;;;;;;41.33;22.77;;;8.30;57.40;;;2.48;81.24;95435.00;4950844;28;20105;-55
2023/03/02 09:09:25;;;;;;;49.28;25.25;;;8.30;57.40;;;2.47;81.84;95441.25;4953797;28;20495;-50
2023/03/02 09:11:50;;;;;;;49.55;25.75;;;8.30;57.20;;;2.50;81.69;95436.38;4948642;28;20030;-50
2023/03/02 09:14:16;;;;;;;49.17;25.05;;;8.30;57.20;;;2.47;80.76;95436.81;4930307;28;20038;-50
2023/03/02 09:16:44;;;;;;;46.55;25.60;;;8.30;57.20;;;2.53;80.67;95438.56;4950778;28;20054;-50
2023/03/02 09:19:13;;;;;;;44.72;23.65;;;8.30;57.10;;;2.58;79.70;95439.75;4953775;28;20497;-51
2023/03/02 09:21:39;;;;;;;47.78;25.98;;;8.30;57.10;;;2.62;80.27;95443.56;4938443;28;20153;-50
2023/03/02 09:24:11;;;;;;;41.90;23.88;;;8.40;57.10;;;2.62;78.91;95440.91;5013237;23;20056;-50
2023/03/02 09:26:43;;;;;;;41.67;23.85;;;8.40;56.90;;;2.65;78.97;95443.13;4956648;28;20036;-50
2023/03/02 09:29:09;;;;;;;40.70;23.60;;;8.40;56.80;;;2.65;78.53;95445.75;4955123;28;20045;-52
2023/03/02 09:31:37;;;;;;;40.47;22.45;;;8.40;56.80;;;2.69;78.92;95442.44;4986263;28;20084;-54
2023/03/02 09:34:04;;;;;;;41.83;23.95;;;8.50;56.80;;;2.70;78.68;95441.44;4947745;28;20034;-51
2023/03/02 09:36:31;;;;;;;39.83;21.48;;;8.50;56.70;;;2.68;77.71;95450.56;4919030;29;20022;-55
2023/03/02 09:38:57;;;;;;;40.03;22.48;;;8.50;56.60;;;2.63;77.38;95450.41;4969547;28;20040;-53
2023/03/02 09:42:04;;;;;;;44.55;24.10;;;8.60;56.50;;;2.70;77.64;95448.53;4935297;28;20113;-54
2023/03/02 09:45:12;;;;;;;42.72;22.42;;;8.50;56.30;;;2.75;78.00;95457.34;4952720;28;20409;-50
2023/03/02 09:48:02;;;;;;;41.28;22.85;;;8.60;56.40;;;2.82;78.22;95462.56;4947583;28;20406;-50
2023/03/02 09:50:46;;;;;;;40.28;22.63;;;8.60;56.40;;;2.81;77.91;95470.69;4952067;28;20387;-54
2023/03/02 09:53:57;;;;;;;40.17;21.75;;;8.70;56.30;;;2.77;77.37;95471.09;4950960;28;20033;-51
2023/03/02 09:56:27;;;;;;;37.85;21.35;;;8.70;56.20;;;2.77;77.71;95465.06;4933089;28;20033;-52
2023/03/02 09:59:21;;;;;;;43.85;23.52;;;8.60;56.20;;;2.72;77.70;95470.16;4969137;28;20034;-54
2023/03/02 10:02:35;;;;;;;40.20;22.40;;;8.60;56.00;;;2.70;77.82;95469.59;4942220;28;20053;-54
2023/03/02 10:05:19;;;;;;;40.70;22.60;;;8.60;56.00;;;2.58;77.89;95464.22;4952901;28;20473;-50
2023/03/02 10:07:48;;;;;;;;;;;8.50;56.00;;;2.59;77.83;95472.91;4952753;28;20030;-53
2023/03/02 10:10:17;;;;;;;43.53;23.50;;;8.50;56.10;;;2.53;78.12;95467.50;4968438;28;19906;-51
2023/03/02 10:13:16;;;;;;;40.63;22.70;;;8.40;56.00;;;2.56;77.95;95474.16;4961868;28;20030;-49
2023/03/02 10:16:11;;;;;;;38.28;21.30;;;8.50;56.00;;;2.72;77.89;95464.88;4967104;28;20096;-51
2023/03/02 10:19:06;;;;;;;42.60;24.05;;;8.60;56.00;;;2.85;77.09;95475.28;4961823;28;20030;-54
2023/03/02 10:21:50;;;;;;;40.88;23.02;;;8.80;55.80;;;3.00;77.41;95467.81;4967028;28;20021;-54
2023/03/02 10:24:32;;;;;;;41.88;22.23;;;8.80;55.80;;;3.04;76.11;95473.47;4940514;28;20405;-54
2023/03/02 10:27:21;;;;;;;41.15;21.55;;;8.90;55.80;;;3.12;76.09;95457.38;4965127;28;20041;-49
2023/03/02 10:30:09;;;;;;;42.08;22.48;;;9.00;55.60;;;3.15;75.62;95461.41;4967631;28;20030;-52
2023/03/02 10:32:46;;;;;;;40.70;23.25;;;9.10;55.50;;;3.19;75.28;95465.19;4962379;28;20431;-52
2023/03/02 10:35:27;;;;;;;40.95;23.52;;;9.20;55.40;;;3.25;74.86;95469.56;4965746;28;20033;-58
2023/03/02 10:38:24;;;;;;;40.90;22.73;;;9.30;55.20;;;3.42;74.03;95467.94;4944699;28;20461;-50
2023/03/02 10:40:58;;;;;;;43.78;23.20;;;9.50;55.00;;;3.47;74.05;95468.06;4954999;28;20511;-57